createdAt,value
2017-08-24T00:01:43.718Z,16.40
2017-08-24T00:04:11.300Z,16.40
2017-08-24T00:06:39.856Z,16.40
2017-08-24T00:09:07.511Z,16.40
2017-08-24T00:11:35.942Z,16.40
2017-08-24T00:14:03.602Z,16.40
2017-08-24T00:16:31.180Z,16.40
2017-08-24T00:18:58.846Z,16.40
2017-08-24T00:21:26.491Z,16.40
2017-08-24T00:23:54.075Z,16.40
2017-08-24T00:26:21.638Z,16.40
2017-08-24T00:28:49.276Z,16.40
2017-08-24T00:31:16.868Z,16.40
2017-08-24T00:33:44.465Z,16.40
2017-08-24T00:36:12.254Z,16.40
2017-08-24T00:38:39.815Z,16.40
2017-08-24T00:41:07.401Z,16.40
2017-08-24T00:43:35.014Z,16.40
2017-08-24T00:46:02.605Z,16.40
2017-08-24T00:48:30.963Z,16.30
2017-08-24T00:50:58.613Z,16.30
2017-08-24T00:53:26.966Z,16.20
2017-08-24T00:55:55.312Z,16.20
2017-08-24T00:58:23.816Z,16.20
2017-08-24T01:00:51.399Z,16.20
2017-08-24T01:03:18.979Z,16.20
2017-08-24T01:05:46.613Z,16.20
2017-08-24T01:08:14.210Z,16.10
2017-08-24T01:10:41.845Z,16.10
2017-08-24T01:13:09.470Z,16.10
2017-08-24T01:15:37.831Z,16.10
2017-08-24T01:18:06.239Z,16.10
2017-08-24T01:20:34.063Z,16.10
2017-08-24T01:23:01.639Z,16.10
2017-08-24T01:25:29.238Z,16.10
2017-08-24T01:27:57.019Z,16.10
2017-08-24T01:30:24.604Z,16.10
2017-08-24T01:32:52.184Z,16.00
2017-08-24T01:35:19.823Z,16.00
2017-08-24T01:37:47.398Z,16.00
2017-08-24T01:40:14.994Z,15.90
2017-08-24T01:42:43.394Z,15.90
2017-08-24T01:45:10.985Z,15.90
2017-08-24T01:47:38.579Z,15.90
2017-08-24T01:50:06.418Z,15.90
2017-08-24T01:52:34.014Z,15.80
2017-08-24T01:55:01.612Z,15.80
2017-08-24T01:57:29.226Z,15.70
2017-08-24T01:59:56.812Z,15.70
2017-08-24T02:02:24.392Z,15.60
2017-08-24T02:04:52.024Z,15.60
2017-08-24T02:07:19.616Z,15.60
2017-08-24T02:09:47.199Z,15.60
2017-08-24T02:12:14.844Z,15.60
2017-08-24T02:14:42.446Z,15.50
2017-08-24T02:17:10.029Z,15.50
2017-08-24T02:19:37.770Z,15.60
2017-08-24T02:22:05.385Z,15.60
2017-08-24T02:24:32.964Z,15.60
2017-08-24T02:27:00.597Z,15.70
2017-08-24T02:29:28.180Z,15.70
2017-08-24T02:31:55.768Z,15.60
2017-08-24T02:34:23.418Z,15.60
2017-08-24T02:36:51.004Z,15.70
2017-08-24T02:39:18.598Z,15.70
2017-08-24T02:41:46.980Z,15.80
2017-08-24T02:44:14.569Z,15.70
2017-08-24T02:46:42.163Z,15.80
2017-08-24T02:49:09.818Z,15.80
2017-08-24T02:51:37.417Z,15.80
2017-08-24T02:54:05.010Z,15.80
2017-08-24T02:56:32.636Z,15.80
2017-08-24T02:59:00.224Z,15.80
2017-08-24T03:01:27.822Z,15.70
2017-08-24T03:03:55.436Z,15.70
2017-08-24T03:06:23.030Z,15.70
2017-08-24T03:08:50.613Z,15.70
2017-08-24T03:11:18.249Z,15.70
2017-08-24T03:13:45.836Z,15.70
2017-08-24T03:16:13.435Z,15.70
2017-08-24T03:18:41.060Z,15.60
2017-08-24T03:21:08.654Z,15.60
2017-08-24T03:23:36.236Z,15.60
2017-08-24T03:26:04.137Z,15.50
2017-08-24T03:28:31.719Z,15.50
2017-08-24T03:30:59.305Z,15.50
2017-08-24T03:33:26.961Z,15.50
2017-08-24T03:35:54.811Z,15.40
2017-08-24T03:38:22.447Z,15.40
2017-08-24T03:40:50.081Z,15.40
2017-08-24T03:43:17.674Z,15.30
2017-08-24T03:45:45.244Z,15.30
2017-08-24T03:48:12.884Z,15.30
2017-08-24T03:50:40.468Z,15.30
2017-08-24T03:53:08.035Z,15.30
2017-08-24T03:55:35.852Z,15.20
2017-08-24T03:58:03.432Z,15.20
2017-08-24T04:00:31.013Z,15.20
2017-08-24T04:02:58.664Z,15.10
2017-08-24T04:05:26.247Z,15.20
2017-08-24T04:07:53.846Z,15.10
2017-08-24T04:10:21.478Z,15.10
2017-08-24T04:12:49.068Z,15.10
2017-08-24T04:15:16.640Z,15.10
2017-08-24T04:17:44.368Z,15.10
2017-08-24T04:20:11.948Z,15.10
2017-08-24T04:22:39.542Z,15.00
2017-08-24T04:25:07.276Z,15.00
2017-08-24T04:27:34.852Z,15.10
2017-08-24T04:30:02.437Z,15.10
2017-08-24T04:32:30.071Z,15.00
2017-08-24T04:34:57.667Z,15.00
2017-08-24T04:37:25.295Z,15.10
2017-08-24T04:39:52.931Z,15.10
2017-08-24T04:42:21.296Z,15.20
2017-08-24T04:44:48.890Z,15.10
2017-08-24T04:47:16.701Z,15.20
2017-08-24T04:49:44.358Z,15.20
2017-08-24T04:52:11.940Z,15.30
2017-08-24T04:54:39.742Z,15.30
2017-08-24T04:57:07.317Z,15.40
2017-08-24T04:59:34.900Z,15.50
2017-08-24T05:02:02.688Z,15.60
2017-08-24T05:04:30.267Z,15.80
2017-08-24T05:06:57.840Z,15.90
2017-08-24T05:09:25.480Z,15.90
2017-08-24T05:11:53.157Z,15.90
2017-08-24T05:14:20.725Z,15.90
2017-08-24T05:16:48.420Z,15.80
2017-08-24T05:19:16.018Z,15.80
2017-08-24T05:21:43.599Z,15.70
2017-08-24T05:24:11.206Z,15.70
2017-08-24T05:26:38.792Z,15.70
2017-08-24T05:29:06.380Z,15.70
2017-08-24T05:31:34.018Z,15.80
2017-08-24T05:34:01.582Z,15.80
2017-08-24T05:36:29.165Z,15.80
2017-08-24T05:38:56.779Z,15.90
2017-08-24T05:41:24.360Z,15.90
2017-08-24T05:43:51.965Z,15.90
2017-08-24T05:46:19.604Z,15.80
2017-08-24T05:48:47.191Z,15.80
2017-08-24T05:51:14.767Z,15.80
2017-08-24T05:53:42.401Z,15.80
2017-08-24T05:56:09.988Z,15.80
2017-08-24T05:58:37.572Z,15.80
2017-08-24T06:01:05.201Z,15.80
2017-08-24T06:03:32.791Z,15.80
2017-08-24T06:06:00.377Z,15.90
2017-08-24T06:08:28.036Z,15.90
2017-08-24T06:10:55.624Z,15.90
2017-08-24T06:13:23.205Z,15.90
2017-08-24T06:15:50.849Z,15.90
2017-08-24T06:18:18.455Z,15.90
2017-08-24T06:20:46.055Z,15.90
2017-08-24T06:23:13.857Z,15.90
2017-08-24T06:25:41.469Z,15.90
2017-08-24T06:28:09.078Z,16.00
2017-08-24T06:30:36.848Z,16.00
2017-08-24T06:33:04.432Z,16.00
2017-08-24T06:35:32.003Z,16.10
2017-08-24T06:37:59.626Z,16.20
2017-08-24T06:40:27.225Z,16.20
2017-08-24T06:42:54.812Z,16.30
2017-08-24T06:45:22.556Z,16.30
2017-08-24T06:47:50.139Z,16.40
2017-08-24T06:50:17.718Z,16.60
2017-08-24T06:52:45.357Z,16.70
2017-08-24T06:55:12.969Z,16.90
2017-08-24T06:57:40.551Z,17.20
2017-08-24T07:00:08.199Z,17.60
2017-08-24T07:02:35.792Z,17.90
2017-08-24T07:05:03.394Z,18.20
2017-08-24T07:07:31.071Z,18.50
2017-08-24T07:09:58.653Z,18.70
2017-08-24T07:12:26.243Z,19.00
2017-08-24T07:14:53.890Z,19.20
2017-08-24T07:17:21.486Z,19.40
2017-08-24T07:19:49.086Z,19.50
2017-08-24T07:22:16.722Z,19.50
2017-08-24T07:24:45.096Z,19.60
2017-08-24T07:27:12.685Z,19.50
2017-08-24T07:29:40.317Z,19.70
2017-08-24T07:32:07.926Z,19.70
2017-08-24T07:34:35.513Z,19.50
2017-08-24T07:37:03.152Z,19.40
2017-08-24T07:39:30.746Z,19.90
2017-08-24T07:41:59.114Z,19.10
2017-08-24T07:44:26.758Z,19.10
2017-08-24T07:46:54.354Z,19.00
2017-08-24T07:49:21.944Z,18.80
2017-08-24T07:51:49.593Z,18.70
2017-08-24T07:54:17.195Z,18.50
2017-08-24T07:56:44.785Z,18.50
2017-08-24T07:59:12.422Z,18.40
2017-08-24T08:01:40.018Z,18.40
2017-08-24T08:04:07.600Z,18.60
2017-08-24T08:06:35.262Z,18.80
2017-08-24T08:09:02.865Z,18.80
2017-08-24T08:11:30.479Z,18.70
2017-08-24T08:13:58.130Z,18.60
2017-08-24T08:16:25.720Z,18.50
2017-08-24T08:18:54.074Z,18.40
2017-08-24T08:21:21.861Z,18.40
2017-08-24T08:23:49.462Z,18.30
2017-08-24T08:26:17.041Z,18.20
2017-08-24T08:28:44.809Z,18.20
2017-08-24T08:31:12.491Z,18.10
2017-08-24T08:33:40.234Z,18.00
2017-08-24T08:36:07.858Z,18.00
2017-08-24T08:38:35.453Z,17.90
2017-08-24T08:41:03.048Z,17.90
2017-08-24T08:43:30.685Z,17.90
2017-08-24T08:45:58.272Z,17.80
2017-08-24T08:48:25.860Z,17.80
2017-08-24T08:50:53.760Z,17.80
2017-08-24T08:53:21.339Z,17.80
2017-08-24T08:55:48.938Z,17.80
2017-08-24T08:58:16.672Z,17.80
2017-08-24T09:00:44.256Z,17.90
2017-08-24T09:03:11.859Z,17.90
2017-08-24T09:05:39.482Z,18.00
2017-08-24T09:08:07.058Z,18.00
2017-08-24T09:10:34.663Z,18.10
2017-08-24T09:13:02.325Z,18.10
2017-08-24T09:15:29.917Z,18.10
2017-08-24T09:17:57.509Z,18.00
2017-08-24T09:20:25.339Z,17.90
2017-08-24T09:22:52.924Z,17.90
2017-08-24T09:25:20.509Z,17.90
2017-08-24T09:27:48.157Z,18.00
2017-08-24T09:30:15.734Z,18.20
2017-08-24T09:32:43.325Z,18.30
2017-08-24T09:35:10.964Z,18.40
2017-08-24T09:37:38.553Z,18.60
2017-08-24T09:40:06.134Z,19.00
2017-08-24T09:42:33.923Z,19.40
2017-08-24T09:45:01.507Z,20.00
2017-08-24T09:47:29.097Z,20.50
2017-08-24T09:49:56.747Z,21.20
2017-08-24T09:52:24.340Z,21.70
2017-08-24T09:54:51.934Z,22.30
2017-08-24T09:57:19.550Z,22.80
2017-08-24T09:59:47.141Z,23.20
2017-08-24T10:02:14.711Z,23.50
2017-08-24T10:04:42.354Z,23.90
2017-08-24T10:07:09.996Z,24.00
2017-08-24T10:09:37.584Z,24.20
2017-08-24T10:12:05.238Z,24.40
2017-08-24T10:14:32.809Z,24.50
2017-08-24T10:17:00.405Z,24.50
2017-08-24T10:19:28.046Z,24.40
2017-08-24T10:21:55.618Z,24.40
2017-08-24T10:24:23.214Z,24.50
2017-08-24T10:26:50.840Z,24.50
2017-08-24T10:29:18.446Z,24.60
2017-08-24T10:31:46.034Z,24.60
2017-08-24T10:34:14.510Z,24.60
2017-08-24T10:36:42.082Z,24.50
2017-08-24T10:39:09.678Z,24.70
2017-08-24T10:41:38.251Z,25.00
2017-08-24T10:44:06.671Z,24.90
2017-08-24T10:46:34.249Z,24.90
2017-08-24T10:49:01.883Z,24.70
2017-08-24T10:51:29.472Z,24.60
2017-08-24T10:53:57.047Z,24.50
2017-08-24T10:56:24.676Z,24.40
2017-08-24T10:58:52.270Z,24.40
2017-08-24T11:01:19.862Z,24.40
2017-08-24T11:03:47.493Z,24.50
2017-08-24T11:06:15.080Z,24.50
2017-08-24T11:08:42.669Z,24.60
2017-08-24T11:11:10.291Z,24.80
2017-08-24T11:13:37.872Z,25.20
2017-08-24T11:16:05.448Z,25.40
2017-08-24T11:18:33.152Z,25.40
2017-08-24T11:21:00.732Z,25.30
2017-08-24T11:23:28.298Z,25.40
2017-08-24T11:25:56.068Z,25.50
2017-08-24T11:28:23.662Z,25.50
2017-08-24T11:30:51.236Z,25.40
2017-08-24T11:33:18.879Z,25.60
2017-08-24T11:35:46.452Z,25.60
2017-08-24T11:38:14.033Z,25.60
2017-08-24T11:40:41.672Z,25.50
2017-08-24T11:43:09.266Z,25.60
2017-08-24T11:45:36.839Z,25.70
2017-08-24T11:48:04.501Z,25.60
2017-08-24T11:50:32.071Z,25.40
2017-08-24T11:52:59.644Z,25.50
2017-08-24T11:55:27.435Z,25.30
2017-08-24T11:57:55.003Z,25.10
2017-08-24T12:00:22.588Z,25.10
2017-08-24T12:02:50.207Z,25.10
2017-08-24T12:05:18.548Z,25.10
2017-08-24T12:07:46.136Z,25.10
2017-08-24T12:10:13.750Z,25.10
2017-08-24T12:12:41.318Z,25.40
2017-08-24T12:15:09.046Z,25.50
2017-08-24T12:17:36.682Z,25.50
2017-08-24T12:20:04.264Z,25.30
2017-08-24T12:22:31.844Z,25.10
2017-08-24T12:24:59.487Z,25.10
2017-08-24T12:27:27.052Z,25.00
2017-08-24T12:29:54.637Z,25.10
2017-08-24T12:32:22.265Z,25.20
2017-08-24T12:34:49.844Z,25.10
2017-08-24T12:37:18.219Z,25.10
2017-08-24T12:39:45.874Z,25.00
2017-08-24T12:42:13.816Z,24.90
2017-08-24T12:44:41.387Z,24.80
2017-08-24T12:47:09.203Z,24.50
2017-08-24T12:49:36.789Z,24.40
2017-08-24T12:52:04.373Z,24.40
2017-08-24T12:54:32.772Z,24.30
2017-08-24T12:57:00.345Z,24.20
2017-08-24T12:59:27.924Z,24.20
2017-08-24T13:01:56.336Z,24.40
2017-08-24T13:04:23.907Z,24.40
2017-08-24T13:06:51.498Z,24.40
2017-08-24T13:09:19.926Z,24.80
2017-08-24T13:11:47.500Z,24.80
2017-08-24T13:14:15.106Z,25.00
2017-08-24T13:16:42.740Z,25.10
2017-08-24T13:19:10.331Z,25.20
2017-08-24T13:21:37.929Z,25.20
2017-08-24T13:24:05.587Z,25.20
2017-08-24T13:26:33.163Z,25.10
2017-08-24T13:29:01.514Z,24.90
2017-08-24T13:31:30.100Z,24.80
2017-08-24T13:33:57.666Z,24.80
2017-08-24T13:36:25.245Z,24.70
2017-08-24T13:38:52.886Z,24.70
2017-08-24T13:41:20.465Z,24.60
2017-08-24T13:43:48.057Z,24.60
2017-08-24T13:46:15.697Z,24.50
2017-08-24T13:48:43.284Z,24.40
2017-08-24T13:51:10.861Z,24.30
2017-08-24T13:53:38.596Z,24.20
2017-08-24T13:56:06.171Z,24.20
2017-08-24T13:58:33.766Z,24.10
2017-08-24T14:01:02.147Z,24.20
2017-08-24T14:03:29.747Z,24.10
2017-08-24T14:05:57.752Z,24.30
2017-08-24T14:08:25.391Z,24.50
2017-08-24T14:10:52.972Z,24.40
2017-08-24T14:13:20.543Z,24.40
2017-08-24T14:15:48.184Z,24.40
2017-08-24T14:18:15.764Z,24.50
2017-08-24T14:20:43.356Z,24.60
2017-08-24T14:23:10.971Z,24.50
2017-08-24T14:25:38.563Z,24.40
2017-08-24T14:28:06.248Z,24.30
2017-08-24T14:30:33.892Z,24.20
2017-08-24T14:33:01.458Z,24.30
2017-08-24T14:35:29.028Z,24.30
2017-08-24T14:37:56.657Z,24.30
2017-08-24T14:40:24.242Z,24.00
2017-08-24T14:42:51.845Z,23.80
2017-08-24T14:45:19.454Z,23.60
2017-08-24T14:47:47.032Z,23.50
2017-08-24T14:50:14.615Z,23.60
2017-08-24T14:52:42.390Z,23.60
2017-08-24T14:55:10.750Z,23.70
2017-08-24T14:57:38.355Z,23.70
2017-08-24T15:00:06.253Z,23.80
2017-08-24T15:02:33.833Z,23.80
2017-08-24T15:05:01.398Z,23.80
2017-08-24T15:07:29.038Z,23.90
2017-08-24T15:09:56.621Z,23.90
2017-08-24T15:12:24.186Z,23.70
2017-08-24T15:14:52.025Z,23.60
2017-08-24T15:17:19.608Z,23.40
2017-08-24T15:19:47.174Z,23.50
2017-08-24T15:22:14.795Z,23.50
2017-08-24T15:24:43.136Z,23.50
2017-08-24T15:27:10.732Z,23.40
2017-08-24T15:29:38.376Z,23.40
2017-08-24T15:32:06.005Z,23.50
2017-08-24T15:34:33.591Z,23.40
2017-08-24T15:37:01.234Z,23.50
2017-08-24T15:39:28.817Z,23.50
2017-08-24T15:41:56.400Z,23.40
2017-08-24T15:44:24.170Z,23.40
2017-08-24T15:46:51.768Z,23.40
2017-08-24T15:49:19.339Z,23.50
2017-08-24T15:51:46.967Z,23.50
2017-08-24T15:54:14.553Z,23.50
2017-08-24T15:56:42.905Z,23.30
2017-08-24T15:59:10.814Z,23.20
2017-08-24T16:01:38.392Z,23.10
2017-08-24T16:04:05.980Z,22.90
2017-08-24T16:06:33.785Z,22.70
2017-08-24T16:09:01.797Z,22.50
2017-08-24T16:11:29.390Z,22.30
2017-08-24T16:13:57.044Z,22.20
2017-08-24T16:16:24.641Z,22.10
2017-08-24T16:18:52.984Z,22.00
2017-08-24T16:21:20.604Z,22.00
2017-08-24T16:23:49.640Z,22.00
2017-08-24T16:26:17.281Z,22.00
2017-08-24T16:28:45.006Z,21.90
2017-08-24T16:31:12.597Z,21.90
2017-08-24T16:33:40.180Z,21.90
2017-08-24T16:36:07.972Z,21.80
2017-08-24T16:38:35.592Z,21.80
2017-08-24T16:41:03.246Z,21.80
2017-08-24T16:43:30.985Z,21.80
2017-08-24T16:45:58.578Z,21.80
2017-08-24T16:48:26.164Z,21.80
2017-08-24T16:50:55.182Z,21.70
2017-08-24T16:53:22.843Z,21.70
2017-08-24T16:55:50.412Z,21.70
2017-08-24T16:58:18.139Z,21.60
2017-08-24T17:00:46.506Z,21.50
2017-08-24T17:03:14.078Z,21.50
2017-08-24T17:05:41.720Z,21.50
2017-08-24T17:08:09.314Z,21.50
2017-08-24T17:10:36.895Z,21.40
2017-08-24T17:13:04.519Z,21.40
2017-08-24T17:15:32.085Z,21.30
2017-08-24T17:17:59.668Z,21.20
2017-08-24T17:20:27.471Z,21.00
2017-08-24T17:22:55.066Z,20.90
2017-08-24T17:25:22.655Z,20.90
2017-08-24T17:27:50.296Z,20.80
2017-08-24T17:30:17.891Z,20.70
2017-08-24T17:32:45.482Z,20.60
2017-08-24T17:35:13.863Z,20.40
2017-08-24T17:37:41.958Z,20.40
2017-08-24T17:40:09.988Z,20.40
2017-08-24T17:42:37.630Z,20.30
2017-08-24T17:45:05.231Z,20.20
2017-08-24T17:47:32.812Z,20.10
2017-08-24T17:50:00.451Z,20.00
2017-08-24T17:52:28.043Z,20.00
2017-08-24T17:54:55.615Z,19.90
2017-08-24T17:57:23.272Z,19.80
2017-08-24T17:59:50.851Z,19.80
2017-08-24T18:02:18.430Z,19.70
2017-08-24T18:04:46.215Z,19.60
2017-08-24T18:07:13.792Z,19.60
2017-08-24T18:09:41.376Z,19.50
2017-08-24T18:12:09.028Z,19.50
2017-08-24T18:14:37.395Z,19.30
2017-08-24T18:17:05.758Z,19.30
2017-08-24T18:19:33.637Z,19.30
2017-08-24T18:22:01.229Z,19.20
2017-08-24T18:24:28.817Z,19.10
2017-08-24T18:26:56.456Z,19.00
2017-08-24T18:29:24.040Z,18.90
2017-08-24T18:31:51.639Z,18.90
2017-08-24T18:34:19.344Z,18.80
2017-08-24T18:36:46.960Z,18.70
2017-08-24T18:39:14.540Z,18.60
2017-08-24T18:41:42.487Z,18.60
2017-08-24T18:44:10.093Z,18.50
2017-08-24T18:46:37.677Z,18.40
2017-08-24T18:49:05.307Z,18.30
2017-08-24T18:51:32.908Z,18.30
2017-08-24T18:54:00.512Z,18.20
2017-08-24T18:56:28.178Z,18.10
2017-08-24T18:58:55.764Z,18.10
2017-08-24T19:01:23.368Z,18.00
2017-08-24T19:03:51.163Z,18.00
2017-08-24T19:06:18.748Z,18.00
2017-08-24T19:08:46.336Z,17.90
2017-08-24T19:11:13.960Z,17.80
2017-08-24T19:13:41.548Z,17.80
2017-08-24T19:16:09.137Z,17.80
2017-08-24T19:18:36.792Z,17.70
2017-08-24T19:21:04.391Z,17.70
2017-08-24T19:23:32.342Z,17.60
2017-08-24T19:26:00.618Z,17.60
2017-08-24T19:28:28.400Z,17.60
2017-08-24T19:30:55.987Z,17.60
2017-08-24T19:33:23.695Z,17.50
2017-08-24T19:35:51.286Z,17.40
2017-08-24T19:38:18.860Z,17.40
2017-08-24T19:40:46.666Z,17.40
2017-08-24T19:43:14.248Z,17.40
2017-08-24T19:45:41.834Z,17.30
2017-08-24T19:48:09.460Z,17.30
2017-08-24T19:50:37.807Z,17.20
2017-08-24T19:53:05.392Z,17.30
2017-08-24T19:55:33.031Z,17.20
2017-08-24T19:58:00.616Z,17.20
2017-08-24T20:00:28.195Z,17.10
2017-08-24T20:02:55.843Z,17.10
2017-08-24T20:05:23.437Z,17.10
2017-08-24T20:07:51.032Z,17.10
2017-08-24T20:10:19.035Z,17.00
2017-08-24T20:12:46.635Z,17.00
2017-08-24T20:15:14.207Z,17.00
2017-08-24T20:17:41.869Z,17.00
2017-08-24T20:20:09.466Z,16.90
2017-08-24T20:22:37.058Z,16.90
2017-08-24T20:25:04.683Z,16.90
2017-08-24T20:27:32.255Z,16.90
2017-08-24T20:29:59.852Z,16.90
2017-08-24T20:32:27.532Z,16.80
2017-08-24T20:34:55.112Z,16.80
2017-08-24T20:37:23.544Z,16.80
2017-08-24T20:39:51.196Z,16.70
2017-08-24T20:42:18.801Z,16.70
2017-08-24T20:44:46.375Z,16.60
2017-08-24T20:47:14.025Z,16.60
2017-08-24T20:49:41.600Z,16.60
2017-08-24T20:52:09.188Z,16.60
2017-08-24T20:54:36.808Z,16.50
2017-08-24T20:57:04.406Z,16.50
2017-08-24T20:59:31.993Z,16.40
2017-08-24T21:02:00.711Z,16.40
2017-08-24T21:04:28.286Z,16.40
2017-08-24T21:06:55.880Z,16.40
2017-08-24T21:09:23.503Z,16.40
2017-08-24T21:11:51.107Z,16.30
2017-08-24T21:14:18.684Z,16.30
2017-08-24T21:16:46.337Z,16.20
2017-08-24T21:19:13.924Z,16.20
2017-08-24T21:21:41.517Z,16.20
2017-08-24T21:24:10.056Z,16.10
2017-08-24T21:26:37.645Z,16.10
2017-08-24T21:29:05.243Z,16.10
2017-08-24T21:31:32.887Z,16.00
2017-08-24T21:34:00.485Z,16.10
2017-08-24T21:36:28.066Z,16.00
2017-08-24T21:38:55.727Z,16.00
2017-08-24T21:41:23.315Z,15.90
2017-08-24T21:43:50.900Z,15.90
2017-08-24T21:46:18.534Z,15.90
2017-08-24T21:48:46.128Z,15.80
2017-08-24T21:51:13.741Z,15.80
2017-08-24T21:53:41.489Z,15.80
2017-08-24T21:56:09.090Z,15.80
2017-08-24T21:58:36.677Z,15.80
2017-08-24T22:01:04.308Z,15.70
2017-08-24T22:03:31.902Z,15.70
2017-08-24T22:05:59.489Z,15.70
2017-08-24T22:08:27.129Z,15.70
2017-08-24T22:10:54.734Z,15.70
2017-08-24T22:13:23.093Z,15.60
2017-08-24T22:15:50.744Z,15.60
2017-08-24T22:18:19.096Z,15.60
2017-08-24T22:20:46.698Z,15.50
2017-08-24T22:23:14.516Z,15.50
2017-08-24T22:25:42.124Z,15.50
2017-08-24T22:28:09.794Z,15.50
2017-08-24T22:30:37.412Z,15.50
2017-08-24T22:33:05.014Z,15.50
2017-08-24T22:35:32.600Z,15.50
2017-08-24T22:38:00.222Z,15.50
2017-08-24T22:40:27.857Z,15.50
2017-08-24T22:42:55.439Z,15.50
2017-08-24T22:45:23.082Z,15.50
2017-08-24T22:47:50.647Z,15.50
2017-08-24T22:50:18.997Z,15.50
2017-08-24T22:52:46.652Z,15.50
2017-08-24T22:55:20.883Z,15.50
2017-08-24T22:57:54.265Z,15.40
2017-08-24T23:00:27.612Z,15.50
2017-08-24T23:03:00.986Z,15.40
2017-08-24T23:05:28.568Z,15.40
2017-08-24T23:07:56.179Z,15.40
2017-08-24T23:10:23.912Z,15.40
2017-08-24T23:12:51.509Z,15.40
2017-08-24T23:15:19.086Z,15.40
2017-08-24T23:17:46.719Z,15.40
2017-08-24T23:20:14.303Z,15.40
2017-08-24T23:22:41.904Z,15.40
2017-08-24T23:25:09.531Z,15.40
2017-08-24T23:27:37.116Z,15.30
2017-08-24T23:30:04.711Z,15.30
2017-08-24T23:32:32.338Z,15.30
2017-08-24T23:35:00.685Z,15.30
2017-08-24T23:37:28.291Z,15.30
2017-08-24T23:39:55.920Z,15.30
2017-08-24T23:42:23.489Z,15.30
2017-08-24T23:44:51.071Z,15.30
2017-08-24T23:47:18.704Z,15.30
2017-08-24T23:49:47.042Z,15.20
2017-08-24T23:52:14.631Z,15.20
2017-08-24T23:54:42.252Z,15.20
2017-08-24T23:57:09.845Z,15.20
2017-08-24T23:59:37.445Z,15.10
